Terminal Aerodrome Forecast
Issued by NWS Louisville, KY

Home | Current Version | Previous Version | Text Only | Print | Product List | Glossary On
Versions: 1 2 3 4 5 6 7 8 9 10 11 12 13
877
FTUS43 KLMK 291137
TAFSDF
TAF
KSDF 291137Z 2912/3018 17005KT P6SM SCT250
     FM291500 21006KT P6SM SCT040
     FM292000 24007KT P6SM VCSH BKN040
     FM300000 29004KT P6SM SCT250=

USA.gov is the U.S. government's official web portal to all federal, state and local government web resources and services.